< < Back
Terminal Aerodrome Forecast


Current Version              Previous Versions:   1  2  3  4  5  6  7  8  9  

Terminal Aerodrome Forecast

083
FTUS44 KMRX 201308 AAB
TAFTYS
TAF AMD
KTYS 201308Z 2013/2112 VRB04KT P6SM SCT250
      TEMPO 2013/2014 5SM BR SCT002
     FM201600 23007KT P6SM BKN150
     FM202000 23009KT P6SM OVC100
     FM210200 23005KT P6SM BKN050
     FM210700 24003KT 5SM BR SCT040=

Latest METAR

434
SAUS80 KWBC 210100 RRB
MTRTYS
METAR KTYS 210053Z 21005KT 10SM FEW100 14/10 A2999 RMK AO2 SLP154
T01390100


USA.gov is the U.S. government's official web portal to all federal, state and local government web resources and services.